Decoded Metar for LFBA (AGEN in FRANCE) (IATA:AGF) | Meteo·Mobile Aviation Weather
aviador You're here:

LFBA Decoded Metar

AGEN in FRANCE
Report Time2019-02-21 23:30:00
UTC Time2019-02-21 23:55:18
Flight Rules vfr VFR
Wind100° at 05 kt
W.Decomp.*RWY 11: 4.9 kt HW 0.9 kt LCW
W.Rank100° ranks 2
Current wind is below 100° avg. (5.6)
Visibility9999 m
Phenomena:N/A
Clouds:N/A
Expected CloudBase > 400 ft AGL from Temp-Dew spread
CeilingNone
Temp02°C (ISA -13)
Dew Point01°C (93% RH)
AAT-1.6°C
QNH1030 hPa
Density Alt-1,824 ft
Elevation197 ft
Report Wrong Elevation
Raw Report
LFBA 212330Z AUTO 10005KT CAVOK 02/01 Q1030=

Extra information for LFBA:More info

Metar Taf Metar & Taf Last 4 Metars F.Rules Stats Wind Profile Meteogram Temp Stats Airport Information Weather charts Add Link Nearby VenuesMetar ALERT Operation Metar Decoded Social comments